Time;durP1;ratioP1;P1;durP2;ratioP2;P2;SDS_P1;SDS_P2;PMS_P1;PMS_P2;Temp;Humidity;BMP_temperature;BMP_pressure;BME280_temperature;BME280_humidity;BME280_pressure;Samples;Min_cycle;Max_cycle;Signal;HPM_P1;HPM_P2
2023/05/02 00:03:55;;;;;;;;;;;;;;;;;;10330600;28;799;-71
2023/05/02 00:08:50;;;;;;;;;;;;;;;;;;10331248;28;806;-71
2023/05/02 00:13:47;;;;;;;;;;;;;;;;;;10330438;28;1136;-71
2023/05/02 00:18:43;;;;;;;;;;;;;;;;;;10330335;28;1910;-71
2023/05/02 00:23:38;;;;;;;;;;;;;;;;;;10330902;28;1044;-71
2023/05/02 00:28:35;;;;;;;;;;;;;;;;;;10331156;28;857;-71
2023/05/02 00:33:31;;;;;;;;;;;;;;;;;;10329598;28;954;-71
2023/05/02 00:38:27;;;;;;;;;;;;;;;;;;10329413;28;1894;-71
2023/05/02 00:43:22;;;;;;;;;;;;;;;;;;10329362;28;781;-71
2023/05/02 00:48:20;;;;;;;;;;;;;;;;;;10329664;28;796;-71
2023/05/02 00:53:16;;;;;;;;;;;;;;;;;;10329825;28;854;-71
2023/05/02 00:58:12;;;;;;;;;;;;;;;;;;10327852;28;1951;-71
2023/05/02 01:03:08;;;;;;;;;;;;;;;;;;10327733;28;1156;-71
2023/05/02 01:08:04;;;;;;;;;;;;;;;;;;10328306;28;809;-71
2023/05/02 01:12:59;;;;;;;;;;;;;;;;;;10328641;28;963;-71
2023/05/02 01:17:55;;;;;;;;;;;;;;;;;;10327517;28;1914;-71
2023/05/02 01:22:51;;;;;;;;;;;;;;;;;;10327732;28;873;-71
2023/05/02 01:27:47;;;;;;;;;;;;;;;;;;10327447;28;940;-71
2023/05/02 01:32:43;;;;;;;;;;;;;;;;;;10327932;28;814;-71
2023/05/02 01:37:39;;;;;;;;;;;;;;;;;;10328144;28;1886;-71
2023/05/02 01:42:35;;;;;;;;;;;;;;;;;;10326919;28;873;-71
2023/05/02 01:47:30;;;;;;;;;;;;;;;;;;10326332;28;1026;-71
2023/05/02 01:52:27;;;;;;;;;;;;;;;;;;10326039;28;888;-71
2023/05/02 01:57:23;;;;;;;;;;;;;;;;;;10326598;28;1886;-71
2023/05/02 02:02:18;;;;;;;;;;;;;;;;;;10326361;28;857;-71
2023/05/02 02:07:14;;;;;;;;;;;;;;;;;;10326168;28;732;-71
2023/05/02 02:12:10;;;;;;;;;;;;;;;;;;10325258;28;937;-71
2023/05/02 02:17:06;;;;;;;;;;;;;;;;;;10325858;28;1973;-71
2023/05/02 02:22:02;;;;;;;;;;;;;;;;;;10325798;28;892;-71
2023/05/02 02:26:58;;;;;;;;;;;;;;;;;;10325840;28;849;-71
2023/05/02 02:31:54;;;;;;;;;;;;;;;;;;10326245;28;841;-71
2023/05/02 02:36:49;;;;;;;;;;;;;;;;;;10325976;28;1937;-71
2023/05/02 02:41:45;;;;;;;;;;;;;;;;;;10325364;28;825;-71
2023/05/02 02:46:41;;;;;;;;;;;;;;;;;;10325154;28;981;-71
2023/05/02 02:51:37;;;;;;;;;;;;;;;;;;10325800;28;793;-71
2023/05/02 02:56:33;;;;;;;;;;;;;;;;;;10325682;28;782;-71
2023/05/02 03:01:29;;;;;;;;;;;;;;;;;;10325280;28;1886;-71
2023/05/02 03:06:26;;;;;;;;;;;;;;;;;;10325485;28;972;-71
2023/05/02 03:11:21;;;;;;;;;;;;;;;;;;10324710;28;976;-71
2023/05/02 03:16:17;;;;;;;;;;;;;;;;;;10324062;28;960;-71
2023/05/02 03:21:14;;;;;;;;;;;;;;;;;;10325258;28;1910;-71
2023/05/02 03:26:10;;;;;;;;;;;;;;;;;;10325054;28;898;-71
2023/05/02 03:31:06;;;;;;;;;;;;;;;;;;10324345;28;813;-71
2023/05/02 03:36:02;;;;;;;;;;;;;;;;;;10324412;28;785;-71
2023/05/02 03:40:57;;;;;;;;;;;;;;;;;;10328856;28;1910;-71
2023/05/02 03:45:53;;;;;;;;;;;;;;;;;;10332094;28;838;-71
2023/05/02 03:50:49;;;;;;;;;;;;;;;;;;10332760;28;784;-71
2023/05/02 03:55:45;;;;;;;;;;;;;;;;;;10331776;28;782;-71
2023/05/02 04:00:41;;;;;;;;;;;;;;;;;;10331216;28;1951;-71
2023/05/02 04:05:37;;;;;;;;;;;;;;;;;;10330791;28;873;-71
2023/05/02 04:10:33;;;;;;;;;;;;;;;;;;10330665;28;849;-71
2023/05/02 04:15:28;;;;;;;;;;;;;;;;;;10331256;28;817;-71
2023/05/02 04:20:25;;;;;;;;;;;;;;;;;;10331088;28;1910;-71
2023/05/02 04:25:20;;;;;;;;;;;;;;;;;;10330691;28;991;-71
2023/05/02 04:30:16;;;;;;;;;;;;;;;;;;10330146;28;869;-71
2023/05/02 04:35:14;;;;;;;;;;;;;;;;;;10329720;28;845;-71
2023/05/02 04:40:10;;;;;;;;;;;;;;;;;;10330048;28;1878;-71
2023/05/02 04:45:06;;;;;;;;;;;;;;;;;;10329382;28;801;-71
2023/05/02 04:50:02;;;;;;;;;;;;;;;;;;10329307;28;889;-71
2023/05/02 04:54:57;;;;;;;;;;;;;;;;;;10329177;28;1043;-71
2023/05/02 04:59:54;;;;;;;;;;;;;;;;;;10328997;28;1945;-71
2023/05/02 05:04:49;;;;;;;;;;;;;;;;;;10329039;28;898;-71
2023/05/02 05:09:45;;;;;;;;;;;;;;;;;;10328353;28;765;-72
2023/05/02 05:14:41;;;;;;;;;;;;;;;;;;10328114;28;924;-71
2023/05/02 05:19:37;;;;;;;;;;;;;;;;;;10327773;28;1963;-71
2023/05/02 05:24:33;;;;;;;;;;;;;;;;;;10327931;28;856;-71
2023/05/02 05:29:29;;;;;;;;;;;;;;;;;;10328306;28;850;-71
2023/05/02 05:34:25;;;;;;;;;;;;;;;;;;10327252;28;814;-71
2023/05/02 05:39:21;;;;;;;;;;;;;;;;;;10327067;28;1882;-71
2023/05/02 05:44:17;;;;;;;;;;;;;;;;;;10326943;28;882;-71
2023/05/02 05:49:13;;;;;;;;;;;;;;;;;;10326662;28;885;-70
2023/05/02 05:54:09;;;;;;;;;;;;;;;;;;10327577;28;919;-67
2023/05/02 05:59:05;;;;;;;;;;;;;;;;;;10326115;28;1949;-71
2023/05/02 06:04:01;;;;;;;;;;;;;;;;;;10326338;28;941;-64
2023/05/02 06:08:57;;;;;;;;;;;;;;;;;;10326354;28;822;-64
2023/05/02 06:13:53;;;;;;;;;;;;;;;;;;10326017;28;954;-64
2023/05/02 06:18:49;;;;;;;;;;;;;;;;;;10325795;28;1905;-64
2023/05/02 06:23:45;;;;;;;;;;;;;;;;;;10325889;28;993;-66
2023/05/02 06:28:41;;;;;;;;;;;;;;;;;;10325683;28;897;-66
2023/05/02 06:33:37;;;;;;;;;;;;;;;;;;10326432;28;857;-67
2023/05/02 06:38:33;;;;;;;;;;;;;;;;;;10325375;28;1948;-66
2023/05/02 06:43:29;;;;;;;;;;;;;;;;;;10325865;28;813;-66
2023/05/02 06:48:25;;;;;;;;;;;;;;;;;;10325141;28;881;-66
2023/05/02 06:53:21;;;;;;;;;;;;;;;;;;10325744;28;862;-66
2023/05/02 06:58:16;;;;;;;;;;;;;;;;;;10324712;28;1937;-66
2023/05/02 07:03:12;;;;;;;;;;;;;;;;;;10325583;28;952;-67
2023/05/02 07:08:09;;;;;;;;;;;;;;;;;;10325494;28;839;-66
2023/05/02 07:13:05;;;;;;;;;;;;;;;;;;10325487;28;852;-66
2023/05/02 07:18:01;;;;;;;;;;;;;;;;;;10331975;28;1891;-66
2023/05/02 07:22:57;;;;;;;;;;;;;;;;;;10332435;28;1620;-66
2023/05/02 07:27:52;;;;;;;;;;;;;;;;;;10332599;28;762;-66
2023/05/02 07:32:48;;;;;;;;;;;;;;;;;;10332643;28;841;-66
2023/05/02 07:37:44;;;;;;;;;;;;;;;;;;10331225;28;1943;-67
2023/05/02 07:42:40;;;;;;;;;;;;;;;;;;10331636;28;921;-66
2023/05/02 07:47:36;;;;;;;;;;;;;;;;;;10331452;28;829;-66
2023/05/02 07:52:32;;;;;;;;;;;;;;;;;;10331290;28;972;-67
2023/05/02 07:57:28;;;;;;;;;;;;;;;;;;10330887;28;1953;-66
2023/05/02 08:02:24;;;;;;;;;;;;;;;;;;10331878;28;897;-71
2023/05/02 08:07:20;;;;;;;;;;;;;;;;;;10331476;28;794;-70
2023/05/02 08:12:16;;;;;;;;;;;;;;;;;;10330037;28;860;-70
2023/05/02 08:17:12;;;;;;;;;;;;;;;;;;10330382;28;1971;-65
2023/05/02 08:22:08;;;;;;;;;;;;;;;;;;10330395;28;885;-65
2023/05/02 08:27:04;;;;;;;;;;;;;;;;;;10330222;28;894;-65
2023/05/02 08:32:00;;;;;;;;;;;;;;;;;;10329846;28;921;-65
2023/05/02 08:36:56;;;;;;;;;;;;;;;;;;10330461;28;829;-65
2023/05/02 08:41:51;;;;;;;;;;;;;;;;;;10330164;28;1944;-65
2023/05/02 08:46:47;;;;;;;;;;;;;;;;;;10329945;28;929;-65
2023/05/02 08:51:43;;;;;;;;;;;;;;;;;;10329185;28;942;-65
2023/05/02 08:56:41;;;;;;;;;;;;;;;;;;10329555;28;790;-65
2023/05/02 09:01:36;;;;;;;;;;;;;;;;;;10328439;28;1944;-65
2023/05/02 09:06:33;;;;;;;;;;;;;;;;;;10328626;28;802;-65
2023/05/02 09:11:30;;;;;;;;;;;;;;;;;;10328302;28;817;-65
2023/05/02 09:16:26;;;;;;;;;;;;;;;;;;10329252;28;1548;-65
2023/05/02 09:21:22;;;;;;;;;;;;;;;;;;10328436;28;1984;-65
2023/05/02 09:26:17;;;;;;;;;;;;;;;;;;10328307;28;1015;-65
2023/05/02 09:31:13;;;;;;;;;;;;;;;;;;10327438;28;834;-65
2023/05/02 09:36:09;;;;;;;;;;;;;;;;;;10327780;28;857;-65
2023/05/02 09:41:05;;;;;;;;;;;;;;;;;;10326712;28;1898;-65
2023/05/02 09:46:01;;;;;;;;;;;;;;;;;;10327563;28;848;-65
2023/05/02 09:50:57;;;;;;;;;;;;;;;;;;10326800;28;909;-65
2023/05/02 09:55:53;;;;;;;;;;;;;;;;;;10326531;28;853;-65
2023/05/02 10:00:49;;;;;;;;;;;;;;;;;;10326170;28;1947;-65
2023/05/02 10:05:45;;;;;;;;;;;;;;;;;;10327118;28;872;-65
2023/05/02 10:10:42;;;;;;;;;;;;;;;;;;10326158;28;766;-66
2023/05/02 10:15:38;;;;;;;;;;;;;;;;;;10325946;28;881;-65
2023/05/02 10:20:34;;;;;;;;;;;;;;;;;;10325902;28;1975;-65
2023/05/02 10:25:30;;;;;;;;;;;;;;;;;;10326371;28;915;-65
2023/05/02 10:30:26;;;;;;;;;;;;;;;;;;10325649;28;1025;-66
2023/05/02 10:35:21;;;;;;;;;;;;;;;;;;10325552;28;821;-72
2023/05/02 10:40:17;;;;;;;;;;;;;;;;;;10325395;28;1882;-72
2023/05/02 10:45:13;;;;;;;;;;;;;;;;;;10326070;28;956;-71
2023/05/02 10:50:09;;;;;;;;;;;;;;;;;;10327718;28;969;-71
2023/05/02 10:55:05;;;;;;;;;;;;;;;;;;10334020;28;999;-67
2023/05/02 11:00:01;;;;;;;;;;;;;;;;;;10333545;28;1889;-67
2023/05/02 11:04:57;;;;;;;;;;;;;;;;;;10333367;28;894;-67
2023/05/02 11:09:53;;;;;;;;;;;;;;;;;;10333080;28;786;-67
2023/05/02 11:14:49;;;;;;;;;;;;;;;;;;10334186;28;841;-67
2023/05/02 11:19:45;;;;;;;;;;;;;;;;;;10333427;28;2055;-67
2023/05/02 11:24:41;;;;;;;;;;;;;;;;;;10332636;28;786;-67
2023/05/02 11:29:36;;;;;;;;;;;;;;;;;;10332190;28;878;-67
2023/05/02 11:34:32;;;;;;;;;;;;;;;;;;10332763;28;987;-67
2023/05/02 11:39:28;;;;;;;;;;;;;;;;;;10331844;28;1890;-67
2023/05/02 11:44:24;;;;;;;;;;;;;;;;;;10332514;28;871;-67
2023/05/02 11:49:20;;;;;;;;;;;;;;;;;;10331690;28;956;-67
2023/05/02 11:54:16;;;;;;;;;;;;;;;;;;10331340;28;834;-67
2023/05/02 11:59:12;;;;;;;;;;;;;;;;;;10331503;28;1947;-67
2023/05/02 12:04:09;;;;;;;;;;;;;;;;;;10328846;28;1047;-67
2023/05/02 12:09:05;;;;;;;;;;;;;;;;;;10330755;28;841;-67
2023/05/02 12:14:00;;;;;;;;;;;;;;;;;;10331260;28;842;-67
2023/05/02 12:18:58;;;;;;;;;;;;;;;;;;10330404;28;1977;-67
2023/05/02 12:23:54;;;;;;;;;;;;;;;;;;10330825;28;889;-67
2023/05/02 12:28:51;;;;;;;;;;;;;;;;;;10329998;28;984;-67
2023/05/02 12:33:51;;;;;;;;;;;;;;;;;;10330260;28;851;-67
2023/05/02 12:38:47;;;;;;;;;;;;;;;;;;10329712;28;1890;-67
2023/05/02 12:43:42;;;;;;;;;;;;;;;;;;10329504;28;774;-67
2023/05/02 12:48:38;;;;;;;;;;;;;;;;;;10329255;28;895;-67
2023/05/02 12:53:34;;;;;;;;;;;;;;;;;;10328882;28;761;-67
2023/05/02 12:58:30;;;;;;;;;;;;;;;;;;10328774;28;1882;-67
2023/05/02 13:03:28;;;;;;;;;;;;;;;;;;10329127;28;857;-67
2023/05/02 13:08:24;;;;;;;;;;;;;;;;;;10328847;28;770;-67
2023/05/02 13:13:20;;;;;;;;;;;;;;;;;;10327210;28;836;-67
2023/05/02 13:18:16;;;;;;;;;;;;;;;;;;10327865;28;1979;-67
2023/05/02 13:23:12;;;;;;;;;;;;;;;;;;10327052;28;845;-67
2023/05/02 13:28:08;;;;;;;;;;;;;;;;;;10327515;28;862;-67
2023/05/02 13:33:04;;;;;;;;;;;;;;;;;;10327830;28;860;-68
2023/05/02 13:38:00;;;;;;;;;;;;;;;;;;10327106;28;1956;-67
2023/05/02 13:42:56;;;;;;;;;;;;;;;;;;10326860;28;794;-67
2023/05/02 13:47:52;;;;;;;;;;;;;;;;;;10326594;28;988;-67
2023/05/02 13:52:48;;;;;;;;;;;;;;;;;;10326459;28;1145;-67
2023/05/02 13:57:44;;;;;;;;;;;;;;;;;;10326135;28;1947;-67
2023/05/02 14:02:39;;;;;;;;;;;;;;;;;;10326640;28;1125;-72
2023/05/02 14:07:36;;;;;;;;;;;;;;;;;;10325341;28;1098;-67
2023/05/02 14:12:32;;;;;;;;;;;;;;;;;;10326102;28;754;-67
2023/05/02 14:17:30;;;;;;;;;;;;;;;;;;10325905;28;1914;-67
2023/05/02 14:22:26;;;;;;;;;;;;;;;;;;10325737;28;869;-69
2023/05/02 14:27:22;;;;;;;;;;;;;;;;;;10325696;28;875;-67
2023/05/02 14:32:18;;;;;;;;;;;;;;;;;;10325605;28;973;-67
2023/05/02 14:37:13;;;;;;;;;;;;;;;;;;10325285;28;956;-67
2023/05/02 14:42:09;;;;;;;;;;;;;;;;;;10325954;28;805;-67
2023/05/02 14:47:05;;;;;;;;;;;;;;;;;;10325289;28;842;-67
2023/05/02 14:52:01;;;;;;;;;;;;;;;;;;10324672;28;877;-66
2023/05/02 14:56:58;;;;;;;;;;;;;;;;;;10325975;28;787;-67
2023/05/02 15:01:54;;;;;;;;;;;;;;;;;;10324412;28;1910;-67
2023/05/02 15:06:52;;;;;;;;;;;;;;;;;;10326154;28;888;-66
2023/05/02 15:11:48;;;;;;;;;;;;;;;;;;10325562;28;851;-67
2023/05/02 15:16:44;;;;;;;;;;;;;;;;;;10325377;28;855;-66
2023/05/02 15:21:40;;;;;;;;;;;;;;;;;;10324671;28;1890;-67
2023/05/02 15:26:37;;;;;;;;;;;;;;;;;;10323982;28;906;-67
2023/05/02 15:31:33;;;;;;;;;;;;;;;;;;10324540;28;860;-67
2023/05/02 15:36:29;;;;;;;;;;;;;;;;;;10328383;28;921;-67
2023/05/02 15:41:26;;;;;;;;;;;;;;;;;;10332346;28;1886;-67
2023/05/02 15:46:22;;;;;;;;;;;;;;;;;;10331721;28;890;-67
2023/05/02 15:51:18;;;;;;;;;;;;;;;;;;10332772;28;853;-67
2023/05/02 15:56:14;;;;;;;;;;;;;;;;;;10330769;28;904;-67
2023/05/02 16:01:10;;;;;;;;;;;;;;;;;;10331746;28;1981;-67
2023/05/02 16:06:06;;;;;;;;;;;;;;;;;;10331012;28;778;-67
2023/05/02 16:11:02;;;;;;;;;;;;;;;;;;10331405;28;989;-67
2023/05/02 16:15:58;;;;;;;;;;;;;;;;;;10331174;28;936;-67
2023/05/02 16:20:54;;;;;;;;;;;;;;;;;;10330327;28;1886;-67
2023/05/02 16:25:50;;;;;;;;;;;;;;;;;;10330495;28;903;-67
2023/05/02 16:30:46;;;;;;;;;;;;;;;;;;10330012;28;866;-67
2023/05/02 16:35:42;;;;;;;;;;;;;;;;;;10329945;28;913;-67
2023/05/02 16:40:37;;;;;;;;;;;;;;;;;;10330222;28;1965;-67
2023/05/02 16:45:33;;;;;;;;;;;;;;;;;;10329456;28;872;-67
2023/05/02 16:50:29;;;;;;;;;;;;;;;;;;10327623;28;893;-67
2023/05/02 16:55:25;;;;;;;;;;;;;;;;;;10328642;28;1055;-67
2023/05/02 17:00:21;;;;;;;;;;;;;;;;;;10328249;28;2031;-67
2023/05/02 17:05:18;;;;;;;;;;;;;;;;;;10328724;28;886;-67
2023/05/02 17:10:15;;;;;;;;;;;;;;;;;;10328426;28;891;-67
2023/05/02 17:15:12;;;;;;;;;;;;;;;;;;10328921;28;817;-67
2023/05/02 17:20:09;;;;;;;;;;;;;;;;;;10328677;28;1885;-67
2023/05/02 17:25:05;;;;;;;;;;;;;;;;;;10327828;28;897;-67
2023/05/02 17:30:01;;;;;;;;;;;;;;;;;;10327727;28;861;-67
2023/05/02 17:34:57;;;;;;;;;;;;;;;;;;10328133;28;940;-67
2023/05/02 17:39:53;;;;;;;;;;;;;;;;;;10327913;28;1945;-67
2023/05/02 17:44:49;;;;;;;;;;;;;;;;;;10328302;28;809;-67
2023/05/02 17:49:48;;;;;;;;;;;;;;;;;;10326846;28;909;-67
2023/05/02 17:54:44;;;;;;;;;;;;;;;;;;10328052;28;814;-67
2023/05/02 17:59:40;;;;;;;;;;;;;;;;;;10327226;28;1977;-67
2023/05/02 18:04:36;;;;;;;;;;;;;;;;;;10326421;28;770;-67
2023/05/02 18:09:32;;;;;;;;;;;;;;;;;;10326884;28;818;-67
2023/05/02 18:14:28;;;;;;;;;;;;;;;;;;10326163;28;890;-67
2023/05/02 18:19:24;;;;;;;;;;;;;;;;;;10326935;28;1894;-67
2023/05/02 18:24:20;;;;;;;;;;;;;;;;;;10325352;28;874;-67
2023/05/02 18:29:15;;;;;;;;;;;;;;;;;;10325698;28;899;-67
2023/05/02 18:34:11;;;;;;;;;;;;;;;;;;10325672;28;761;-67
2023/05/02 18:39:07;;;;;;;;;;;;;;;;;;10325921;28;1953;-67
2023/05/02 18:44:05;;;;;;;;;;;;;;;;;;10325436;28;761;-67
2023/05/02 18:49:01;;;;;;;;;;;;;;;;;;10325295;28;949;-67
2023/05/02 18:53:57;;;;;;;;;;;;;;;;;;10325198;28;901;-67
2023/05/02 18:58:55;;;;;;;;;;;;;;;;;;10324679;28;1977;-67
2023/05/02 19:03:51;;;;;;;;;;;;;;;;;;10324695;28;1000;-67
2023/05/02 19:08:47;;;;;;;;;;;;;;;;;;10325042;28;770;-67
2023/05/02 19:13:42;;;;;;;;;;;;;;;;;;10332003;28;770;-67
2023/05/02 19:18:38;;;;;;;;;;;;;;;;;;10332812;28;1951;-67
2023/05/02 19:23:34;;;;;;;;;;;;;;;;;;10333348;28;871;-67
2023/05/02 19:28:30;;;;;;;;;;;;;;;;;;10333579;28;845;-67
2023/05/02 19:33:26;;;;;;;;;;;;;;;;;;10332890;28;798;-67
2023/05/02 19:38:22;;;;;;;;;;;;;;;;;;10331290;28;1887;-67
2023/05/02 19:43:17;;;;;;;;;;;;;;;;;;10332426;28;896;-67
2023/05/02 19:48:13;;;;;;;;;;;;;;;;;;10331172;28;932;-67
2023/05/02 19:53:09;;;;;;;;;;;;;;;;;;10331354;28;1062;-67
2023/05/02 19:58:05;;;;;;;;;;;;;;;;;;10331354;28;1898;-67
2023/05/02 20:03:02;;;;;;;;;;;;;;;;;;10331300;28;809;-66
2023/05/02 20:07:58;;;;;;;;;;;;;;;;;;10331744;28;821;-66
2023/05/02 20:12:54;;;;;;;;;;;;;;;;;;10331360;28;844;-65
2023/05/02 20:17:50;;;;;;;;;;;;;;;;;;10330595;28;1969;-65
2023/05/02 20:22:46;;;;;;;;;;;;;;;;;;10330174;28;777;-65
2023/05/02 20:27:41;;;;;;;;;;;;;;;;;;10330857;28;842;-66
2023/05/02 20:32:37;;;;;;;;;;;;;;;;;;10329623;28;912;-65
2023/05/02 20:37:33;;;;;;;;;;;;;;;;;;10329818;28;1957;-65
2023/05/02 20:42:29;;;;;;;;;;;;;;;;;;10329700;28;812;-66
2023/05/02 20:47:25;;;;;;;;;;;;;;;;;;10330309;28;837;-65
2023/05/02 20:52:21;;;;;;;;;;;;;;;;;;10329911;28;818;-66
2023/05/02 20:57:17;;;;;;;;;;;;;;;;;;10328999;28;1426;-66
2023/05/02 21:02:13;;;;;;;;;;;;;;;;;;10329392;28;1921;-65
2023/05/02 21:07:08;;;;;;;;;;;;;;;;;;10328118;28;893;-65
2023/05/02 21:12:05;;;;;;;;;;;;;;;;;;10328452;28;909;-65
2023/05/02 21:17:01;;;;;;;;;;;;;;;;;;10328389;28;871;-65
2023/05/02 21:21:56;;;;;;;;;;;;;;;;;;10328039;28;1984;-65
2023/05/02 21:26:52;;;;;;;;;;;;;;;;;;10327306;28;963;-65
2023/05/02 21:31:48;;;;;;;;;;;;;;;;;;10327759;28;943;-66
2023/05/02 21:36:44;;;;;;;;;;;;;;;;;;10326808;28;841;-66
2023/05/02 21:41:40;;;;;;;;;;;;;;;;;;10327185;28;1882;-66
2023/05/02 21:46:36;;;;;;;;;;;;;;;;;;10328074;28;793;-65
2023/05/02 21:51:33;;;;;;;;;;;;;;;;;;10326964;28;821;-66
2023/05/02 21:56:29;;;;;;;;;;;;;;;;;;10326789;28;880;-65
2023/05/02 22:01:25;;;;;;;;;;;;;;;;;;10326261;28;2062;-66
2023/05/02 22:06:21;;;;;;;;;;;;;;;;;;10327077;28;907;-66
2023/05/02 22:11:17;;;;;;;;;;;;;;;;;;10326221;28;829;-65
2023/05/02 22:16:13;;;;;;;;;;;;;;;;;;10326625;28;862;-65
2023/05/02 22:21:08;;;;;;;;;;;;;;;;;;10325880;28;1956;-65
2023/05/02 22:26:04;;;;;;;;;;;;;;;;;;10326432;28;846;-65
2023/05/02 22:31:00;;;;;;;;;;;;;;;;;;10325724;28;842;-65
2023/05/02 22:35:56;;;;;;;;;;;;;;;;;;10325614;28;901;-65
2023/05/02 22:40:52;;;;;;;;;;;;;;;;;;10325395;28;1949;-65
2023/05/02 22:45:49;;;;;;;;;;;;;;;;;;10325451;28;893;-66
2023/05/02 22:50:46;;;;;;;;;;;;;;;;;;10325353;28;909;-66
2023/05/02 22:55:42;;;;;;;;;;;;;;;;;;10325005;28;1249;-66
2023/05/02 23:00:38;;;;;;;;;;;;;;;;;;10324929;28;1980;-65
2023/05/02 23:05:34;;;;;;;;;;;;;;;;;;10325644;28;797;-66
2023/05/02 23:10:30;;;;;;;;;;;;;;;;;;10325481;28;801;-66
2023/05/02 23:15:26;;;;;;;;;;;;;;;;;;10324904;28;907;-65
2023/05/02 23:20:22;;;;;;;;;;;;;;;;;;10324666;28;1890;-66
2023/05/02 23:25:18;;;;;;;;;;;;;;;;;;10325297;28;1541;-65
2023/05/02 23:30:13;;;;;;;;;;;;;;;;;;10325258;28;810;-65
2023/05/02 23:35:09;;;;;;;;;;;;;;;;;;10324057;28;1051;-66
2023/05/02 23:40:08;;;;;;;;;;;;;;;;;;10324893;28;1945;-66
2023/05/02 23:45:03;;;;;;;;;;;;;;;;;;10323711;28;901;-65
2023/05/02 23:49:59;;;;;;;;;;;;;;;;;;10324212;28;777;-65
2023/05/02 23:54:55;;;;;;;;;;;;;;;;;;10324727;28;822;-66
2023/05/02 23:59:52;;;;;;;;;;;;;;;;;;10331301;28;1909;-66
